Time;durP1;ratioP1;P1;durP2;ratioP2;P2;SDS_P1;SDS_P2;PMS_P1;PMS_P2;Temp;Humidity;BMP_temperature;BMP_pressure;BME280_temperature;BME280_humidity;BME280_pressure;Samples;Min_cycle;Max_cycle;Signal;HPM_P1;HPM_P2
2021/12/23 00:00:14;;;;;;;16.23;11.67;;;;;;;-0.56;69.19;101199.63;682794;29;1142;-81
2021/12/23 00:00:35;;;;;;;18.08;11.93;;;;;;;-0.60;69.42;101198.47;685318;28;1236;-81
2021/12/23 00:00:57;;;;;;;18.75;12.38;;;;;;;-0.61;69.08;101196.69;682953;29;831;-81
2021/12/23 00:01:17;;;;;;;19.10;13.18;;;;;;;-0.57;69.35;101197.84;682693;28;1096;-81
2021/12/23 00:01:39;;;;;;;18.33;12.87;;;;;;;-0.59;69.13;101189.09;685192;28;1283;-81
2021/12/23 00:02:00;;;;;;;17.30;12.10;;;;;;;-0.58;69.24;101202.06;685390;28;1119;-80
2021/12/23 00:02:20;;;;;;;15.45;11.02;;;;;;;-0.54;69.16;101207.41;683423;28;1484;-80
2021/12/23 00:02:41;;;;;;;14.90;11.23;;;;;;;-0.59;68.82;101202.84;682793;28;1485;-81
2021/12/23 00:03:03;;;;;;;17.00;12.10;;;;;;;-0.60;69.28;101193.34;682808;29;1135;-81
2021/12/23 00:03:24;;;;;;;18.45;12.50;;;;;;;-0.55;69.00;101208.19;683212;28;1596;-80
2021/12/23 00:03:45;;;;;;;19.25;12.50;;;;;;;-0.61;69.15;101201.81;685992;28;839;-80
2021/12/23 00:04:06;;;;;;;17.80;12.10;;;;;;;-0.62;69.14;101204.25;688019;28;1034;-80
2021/12/23 00:04:26;;;;;;;18.40;12.18;;;;;;;-0.57;69.19;101208.97;688027;28;1292;-81
2021/12/23 00:04:47;;;;;;;17.05;12.00;;;;;;;-0.58;68.95;101201.16;688746;28;862;-81
2021/12/23 00:05:09;;;;;;;17.10;11.82;;;;;;;-0.60;69.23;101200.13;685295;28;1231;-81
2021/12/23 00:05:30;;;;;;;16.08;11.80;;;;;;;-0.58;69.11;101199.50;689391;28;1433;-81
2021/12/23 00:05:53;;;;;;;16.80;12.02;;;;;;;-0.51;69.31;101207.69;685664;28;1172;-81
2021/12/23 00:06:14;;;;;;;17.00;12.10;;;;;;;-0.61;69.06;101196.69;687956;28;1082;-81
2021/12/23 00:06:34;;;;;;;17.08;11.90;;;;;;;-0.55;69.09;101200.50;686034;28;1087;-80
2021/12/23 00:06:55;;;;;;;19.10;11.93;;;;;;;-0.59;69.26;101190.00;685520;28;1142;-80
2021/12/23 00:07:16;;;;;;;19.50;12.30;;;;;;;-0.55;68.85;101190.25;685258;28;1218;-81
2021/12/23 00:07:37;;;;;;;19.40;12.40;;;;;;;-0.51;69.00;101205.13;686477;28;1286;-81
2021/12/23 00:07:59;;;;;;;16.90;11.82;;;;;;;-0.57;69.22;101188.47;688883;28;1225;-80
2021/12/23 00:08:20;;;;;;;15.07;10.98;;;;;;;-0.50;69.25;101201.78;685415;28;1031;-80
2021/12/23 00:08:41;;;;;;;16.38;10.77;;;;;;;-0.48;69.15;101201.13;683365;28;1232;-80
2021/12/23 00:09:04;;;;;;;16.73;11.15;;;;;;;-0.53;68.95;101193.81;684978;28;1220;-81
2021/12/23 00:09:34;;;;;;;17.27;12.07;;;;;;;-0.57;68.88;101183.34;687806;28;1270;-80
2021/12/23 00:10:08;;;;;;;16.23;12.25;;;;;;;-0.51;69.11;101182.91;685346;28;814;-81
2021/12/23 00:10:28;;;;;;;16.80;11.90;;;;;;;-0.44;69.13;101199.72;687874;28;1151;-81
2021/12/23 00:10:50;;;;;;;17.45;12.23;;;;;;;-0.51;68.93;101182.03;685558;28;795;-81
2021/12/23 00:11:11;;;;;;;16.77;12.23;;;;;;;-0.57;69.03;101172.19;682630;28;1114;-80
2021/12/23 00:11:32;;;;;;;16.23;11.87;;;;;;;-0.52;68.98;101180.25;686869;28;1915;-80
2021/12/23 00:11:52;;;;;;;15.25;11.50;;;;;;;-0.56;68.95;101166.28;686216;28;1145;-80
2021/12/23 00:12:13;;;;;;;15.30;11.90;;;;;;;-0.51;68.97;101182.91;687632;28;1010;-81
2021/12/23 00:12:40;;;;;;;15.68;12.02;;;;;;;-0.52;68.91;101175.13;687496;28;1345;-80
2021/12/23 00:13:01;;;;;;;15.35;11.80;;;;;;;-0.51;69.04;101182.03;684193;28;1205;-80
2021/12/23 00:13:21;;;;;;;16.13;11.57;;;;;;;-0.58;68.79;101166.16;682571;28;1640;-80
2021/12/23 00:13:50;;;;;;;16.30;11.88;;;;;;;-0.57;68.99;101164.50;688212;28;827;-81
2021/12/23 00:14:11;;;;;;;19.05;12.20;;;;;;;-0.59;69.01;101163.47;688005;28;2049;-80
2021/12/23 00:14:34;;;;;;;18.88;12.50;;;;;;;-0.55;68.85;101180.00;687679;28;1144;-81
2021/12/23 00:15:05;;;;;;;19.88;12.45;;;;;;;-0.58;69.20;101157.56;685542;28;846;-80
2021/12/23 00:15:38;;;;;;;18.15;12.20;;;;;;;-0.55;68.99;101165.53;685158;28;2039;-80
2021/12/23 00:16:30;;;;;;;16.00;11.40;;;;;;;-0.55;68.84;101169.75;685322;28;1017;-81
2021/12/23 00:17:16;;;;;;;16.48;11.55;;;;;;;-0.54;69.07;101166.41;682858;28;859;-80
2021/12/23 00:18:04;;;;;;;17.83;11.80;;;;;;;-0.58;69.18;101166.16;685957;28;1408;-80
2021/12/23 00:18:57;;;;;;;15.15;11.75;;;;;;;-0.57;68.78;101162.81;687124;28;1401;-81
2021/12/23 00:19:33;;;;;;;13.52;11.18;;;;;;;-0.57;69.24;101156.81;687922;28;1259;-80
2021/12/23 00:23:33;;;;;;;14.85;10.75;;;;;;;-0.55;69.42;101134.75;688971;28;1036;-80
2021/12/23 00:23:56;;;;;;;18.67;11.85;;;;;;;-0.54;68.92;101141.66;690874;28;846;-81
2021/12/23 00:24:17;;;;;;;20.13;12.10;;;;;;;-0.49;69.43;101144.59;690640;28;1149;-81
2021/12/23 00:24:39;;;;;;;19.87;12.00;;;;;;;-0.55;69.26;101133.84;688246;28;1084;-80
2021/12/23 00:25:00;;;;;;;16.58;11.40;;;;;;;-0.54;69.17;101135.63;685201;28;1357;-81
2021/12/23 00:25:20;;;;;;;15.83;11.70;;;;;;;-0.46;69.15;101147.38;685370;28;1204;-81
2021/12/23 00:25:41;;;;;;;14.88;11.57;;;;;;;-0.53;69.15;101145.09;688092;28;913;-81
2021/12/23 00:26:02;;;;;;;15.45;11.80;;;;;;;-0.53;69.17;101138.31;686333;28;1297;-81
2021/12/23 00:26:24;;;;;;;15.92;11.60;;;;;;;-0.55;68.98;101133.84;686469;28;1107;-81
2021/12/23 00:27:03;;;;;;;16.60;11.52;;;;;;;-0.57;69.04;101144.88;688095;28;1224;-81
2021/12/23 00:27:25;;;;;;;16.65;10.80;;;;;;;-0.57;69.33;101138.88;681938;28;1215;-81
2021/12/23 00:27:46;;;;;;;15.80;10.70;;;;;;;-0.52;68.96;101140.09;682184;29;1268;-81
2021/12/23 00:28:07;;;;;;;14.50;10.77;;;;;;;-0.57;69.21;101132.06;682670;28;979;-80
2021/12/23 00:28:29;;;;;;;16.30;11.30;;;;;;;-0.57;69.15;101124.38;683072;28;1228;-80
2021/12/23 00:28:51;;;;;;;18.85;11.98;;;;;;;-0.44;68.91;101153.56;685331;28;1374;-80
2021/12/23 00:29:11;;;;;;;20.17;12.48;;;;;;;-0.50;69.12;101137.69;684788;28;1131;-80
2021/12/23 00:29:32;;;;;;;16.88;11.90;;;;;;;-0.53;69.17;101127.16;682604;28;1191;-80
2021/12/23 00:29:53;;;;;;;16.98;11.80;;;;;;;-0.52;69.26;101126.41;685451;28;832;-81
2021/12/23 00:30:13;;;;;;;16.17;11.43;;;;;;;-0.51;69.04;101131.63;682746;29;1117;-81
2021/12/23 00:30:34;;;;;;;17.63;11.20;;;;;;;-0.48;69.15;101139.59;682696;29;1195;-80
2021/12/23 00:30:54;;;;;;;17.67;11.20;;;;;;;-0.50;68.96;101130.84;683102;28;749;-80
2021/12/23 00:31:15;;;;;;;17.40;11.02;;;;;;;-0.50;69.20;101127.41;683003;28;1047;-80
2021/12/23 00:31:36;;;;;;;16.88;10.77;;;;;;;-0.44;68.94;101143.28;685282;28;1926;-80
2021/12/23 00:31:56;;;;;;;14.77;10.70;;;;;;;-0.44;68.95;101138.16;685682;28;1166;-81
2021/12/23 00:32:17;;;;;;;15.23;11.35;;;;;;;-0.36;69.17;101154.13;685265;28;1207;-81
2021/12/23 00:32:38;;;;;;;15.25;11.40;;;;;;;-0.52;69.06;101134.09;685518;28;1039;-80
2021/12/23 00:32:58;;;;;;;16.30;11.50;;;;;;;-0.50;68.92;101127.41;685603;28;1285;-81
2021/12/23 00:33:21;;;;;;;14.80;10.87;;;;;;;-0.52;69.06;101129.84;682644;28;1294;-81
2021/12/23 00:33:43;;;;;;;15.50;11.13;;;;;;;-0.46;68.97;101134.56;682862;28;1258;-80
2021/12/23 00:34:03;;;;;;;16.05;11.30;;;;;;;-0.49;69.15;101130.13;686109;28;1048;-81
2021/12/23 00:34:44;;;;;;;16.45;11.38;;;;;;;-0.34;68.87;101150.91;687443;28;1071;-81
2021/12/23 00:35:06;;;;;;;15.73;11.57;;;;;;;-0.43;68.72;101134.81;682458;28;1542;-80
2021/12/23 00:35:27;;;;;;;16.30;11.85;;;;;;;-0.46;68.86;101135.47;684061;28;1156;-80
2021/12/23 00:35:48;;;;;;;15.60;11.32;;;;;;;-0.40;68.75;101145.31;688370;28;1207;-81
2021/12/23 00:36:11;;;;;;;14.88;11.43;;;;;;;-0.44;69.00;101140.72;685306;28;1446;-81
2021/12/23 00:36:31;;;;;;;14.02;11.10;;;;;;;-0.45;68.48;101132.13;686846;28;1108;-81
2021/12/23 00:36:53;;;;;;;14.50;11.30;;;;;;;-0.42;68.71;101141.72;688086;28;1330;-80
2021/12/23 00:37:38;;;;;;;16.00;11.30;;;;;;;-0.36;68.61;101149.91;685068;28;1326;-80
2021/12/23 00:38:10;;;;;;;14.88;11.13;;;;;;;-0.45;68.79;101136.38;686475;28;1053;-80
2021/12/23 00:38:39;;;;;;;16.23;11.43;;;;;;;-0.41;68.61;101142.63;688020;28;1075;-81
2021/12/23 00:39:02;;;;;;;16.25;11.20;;;;;;;-0.46;68.56;101132.00;690559;28;1199;-80
2021/12/23 00:39:22;;;;;;;16.17;11.43;;;;;;;-0.43;68.59;101129.69;687444;28;1051;-81
2021/12/23 00:39:45;;;;;;;15.57;11.20;;;;;;;-0.44;68.63;101133.03;688032;28;1074;-81
2021/12/23 00:40:09;;;;;;;17.65;11.35;;;;;;;-0.42;68.60;101126.34;685259;28;1084;-81
2021/12/23 00:40:29;;;;;;;18.52;11.40;;;;;;;-0.46;68.47;101125.22;686238;28;1152;-80
2021/12/23 00:40:52;;;;;;;19.08;11.63;;;;;;;-0.45;68.57;101121.00;685387;28;1338;-81
2021/12/23 00:41:13;;;;;;;16.50;11.20;;;;;;;-0.41;68.63;101138.41;682841;28;1820;-81
2021/12/23 00:41:34;;;;;;;15.25;10.88;;;;;;;-0.44;68.57;101125.34;685164;28;1270;-80
2021/12/23 00:42:04;;;;;;;13.85;10.50;;;;;;;-0.47;68.48;101115.75;687986;28;1049;-80
2021/12/23 00:42:25;;;;;;;14.95;11.02;;;;;;;-0.44;68.48;101123.66;685776;28;1327;-81
2021/12/23 00:42:45;;;;;;;15.68;11.27;;;;;;;-0.34;68.59;101129.50;685369;28;1138;-81
2021/12/23 00:43:06;;;;;;;14.83;11.20;;;;;;;-0.39;68.40;101126.56;684117;28;1715;-81
2021/12/23 00:43:52;;;;;;;16.58;11.02;;;;;;;-0.29;68.33;101130.75;683270;28;1269;-81
2021/12/23 00:44:13;;;;;;;17.80;11.50;;;;;;;-0.42;68.33;101110.97;682544;29;997;-80
2021/12/23 00:44:36;;;;;;;16.13;11.55;;;;;;;-0.38;68.39;101120.66;683599;28;1118;-81
2021/12/23 00:44:56;;;;;;;15.68;11.68;;;;;;;-0.39;68.39;101116.31;684980;28;1535;-81
2021/12/23 00:45:17;;;;;;;15.27;11.60;;;;;;;-0.32;68.18;101112.59;683697;28;1239;-81
2021/12/23 00:45:38;;;;;;;16.00;12.15;;;;;;;-0.32;68.14;101120.28;685114;28;1036;-81
2021/12/23 00:45:59;;;;;;;15.63;11.80;;;;;;;-0.24;68.39;101133.69;685624;28;1205;-80
2021/12/23 00:46:19;;;;;;;16.40;11.50;;;;;;;-0.36;68.18;101111.44;685387;28;1183;-80
2021/12/23 00:46:40;;;;;;;16.10;10.80;;;;;;;-0.37;68.35;101104.53;685116;28;1111;-80
2021/12/23 00:47:01;;;;;;;17.93;11.27;;;;;;;-0.36;68.28;101108.88;683987;28;1362;-80
2021/12/23 00:47:21;;;;;;;18.00;11.52;;;;;;;-0.34;68.30;101104.75;685228;28;1087;-80
2021/12/23 00:47:42;;;;;;;17.25;11.60;;;;;;;-0.36;68.14;101111.44;685344;28;1252;-81
2021/12/23 00:48:03;;;;;;;15.43;11.40;;;;;;;-0.30;68.11;101106.75;685275;28;1081;-81
2021/12/23 00:48:25;;;;;;;14.07;11.30;;;;;;;-0.30;68.00;101101.63;682578;28;1258;-81
2021/12/23 00:48:45;;;;;;;14.93;11.38;;;;;;;-0.27;68.14;101110.38;682732;28;851;-81
2021/12/23 00:49:06;;;;;;;15.25;11.13;;;;;;;-0.23;67.92;101104.69;685157;28;1005;-80
2021/12/23 00:49:27;;;;;;;15.90;11.40;;;;;;;-0.34;67.77;101099.63;685723;28;1288;-81
2021/12/23 00:49:47;;;;;;;17.52;11.60;;;;;;;-0.30;67.90;101106.75;685408;28;929;-81
2021/12/23 00:50:09;;;;;;;17.30;11.77;;;;;;;-0.33;67.72;101090.28;685894;28;997;-81
2021/12/23 00:50:29;;;;;;;17.00;11.40;;;;;;;-0.31;67.67;101099.84;690454;28;1312;-81
2021/12/23 00:50:50;;;;;;;14.77;10.90;;;;;;;-0.33;67.72;101111.66;685442;28;808;-81
2021/12/23 00:51:12;;;;;;;14.60;10.77;;;;;;;-0.34;67.81;101107.31;686427;28;996;-80
2021/12/23 00:51:35;;;;;;;14.18;10.77;;;;;;;-0.35;67.95;101108.09;690072;28;1915;-81
2021/12/23 00:51:57;;;;;;;15.65;11.18;;;;;;;-0.36;67.80;101105.41;684967;28;1387;-81
2021/12/23 00:52:23;;;;;;;15.55;11.00;;;;;;;-0.35;67.76;101104.63;688030;28;1096;-81
2021/12/23 00:52:45;;;;;;;15.50;11.02;;;;;;;-0.33;67.77;101106.53;682497;28;1370;-81
2021/12/23 00:53:08;;;;;;;14.70;10.60;;;;;;;-0.31;67.55;101112.69;685683;28;1013;-81
2021/12/23 00:53:35;;;;;;;14.32;10.48;;;;;;;-0.28;67.59;101118.84;684482;28;1115;-81
2021/12/23 00:54:04;;;;;;;15.15;10.50;;;;;;;-0.22;67.25;101127.00;685325;28;1200;-80
2021/12/23 00:54:24;;;;;;;14.95;10.32;;;;;;;-0.31;67.69;101112.69;685229;28;1163;-81
2021/12/23 00:54:45;;;;;;;15.68;10.50;;;;;;;-0.28;67.41;101113.72;688029;28;1179;-81
2021/12/23 00:55:08;;;;;;;15.50;11.38;;;;;;;-0.35;67.31;101108.09;685531;28;1289;-80
2021/12/23 00:55:29;;;;;;;15.70;11.30;;;;;;;-0.30;67.47;101109.34;686493;28;1391;-81
2021/12/23 00:55:53;;;;;;;15.70;10.88;;;;;;;-0.28;67.45;101108.59;682648;28;914;-80
2021/12/23 00:56:13;;;;;;;16.00;10.70;;;;;;;-0.33;67.30;101098.84;679965;28;1124;-81
2021/12/23 00:56:36;;;;;;;16.07;10.90;;;;;;;-0.29;67.53;101105.13;683630;28;1053;-80
2021/12/23 00:56:56;;;;;;;17.23;11.70;;;;;;;-0.31;67.18;101094.72;682559;28;1304;-82
2021/12/23 00:57:20;;;;;;;15.48;10.90;;;;;;;-0.29;67.47;101092.28;682514;29;1049;-81
2021/12/23 00:57:41;;;;;;;15.90;11.00;;;;;;;-0.28;67.42;101095.75;680174;29;856;-81
2021/12/23 00:58:02;;;;;;;14.70;10.52;;;;;;;-0.30;67.17;101096.50;679935;29;1752;-81
2021/12/23 00:58:23;;;;;;;15.98;10.93;;;;;;;-0.32;67.60;101082.69;681279;28;933;-81
2021/12/23 00:58:44;;;;;;;15.05;10.73;;;;;;;-0.30;67.19;101086.25;687983;28;1499;-81
2021/12/23 00:59:08;;;;;;;15.07;10.70;;;;;;;-0.31;67.18;101086.16;684293;28;1199;-81
2021/12/23 00:59:30;;;;;;;15.85;10.43;;;;;;;-0.31;67.44;101084.47;684624;28;1075;-81
2021/12/23 00:59:50;;;;;;;15.55;10.32;;;;;;;-0.30;67.47;101086.25;682830;29;835;-81
2021/12/23 01:00:18;;;;;;;14.87;10.57;;;;;;;-0.31;67.45;101089.59;685254;28;1014;-80
2021/12/23 01:00:39;;;;;;;14.93;11.15;;;;;;;-0.26;67.41;101089.06;689305;28;1337;-81
2021/12/23 01:01:01;;;;;;;17.00;11.50;;;;;;;-0.20;67.38;101100.69;688070;28;1047;-81
2021/12/23 01:01:21;;;;;;;18.15;11.40;;;;;;;-0.29;67.50;101087.16;690739;28;1181;-81
2021/12/23 01:01:42;;;;;;;17.55;11.57;;;;;;;-0.27;67.14;101090.72;687942;28;1169;-81
2021/12/23 01:02:07;;;;;;;15.60;11.30;;;;;;;-0.24;67.34;101090.06;687634;28;1432;-80
2021/12/23 01:02:30;;;;;;;15.10;11.10;;;;;;;-0.24;67.39;101088.41;687348;28;1044;-80
2021/12/23 01:02:51;;;;;;;16.45;11.10;;;;;;;-0.26;67.55;101081.38;684228;28;831;-80
2021/12/23 01:03:12;;;;;;;16.45;11.07;;;;;;;-0.23;67.42;101087.63;683269;28;1041;-81
2021/12/23 01:03:33;;;;;;;15.93;10.80;;;;;;;-0.27;67.36;101080.47;689338;28;1213;-81
2021/12/23 01:03:54;;;;;;;15.15;11.00;;;;;;;-0.20;67.44;101090.41;690855;28;814;-81
2021/12/23 01:04:15;;;;;;;15.60;11.07;;;;;;;-0.20;67.03;101087.84;690603;28;988;-81
2021/12/23 01:04:37;;;;;;;15.43;11.40;;;;;;;-0.19;67.29;101089.66;689956;28;1308;-80
2021/12/23 01:04:59;;;;;;;14.55;11.05;;;;;;;-0.21;67.32;101080.94;690709;28;913;-81
2021/12/23 01:05:21;;;;;;;14.05;10.80;;;;;;;-0.16;67.27;101086.44;691649;28;1087;-81
2021/12/23 01:05:42;;;;;;;13.50;10.43;;;;;;;-0.18;67.24;101085.41;687940;28;1712;-80
2021/12/23 01:06:03;;;;;;;14.18;10.70;;;;;;;-0.20;67.59;101076.72;685261;28;1397;-81
2021/12/23 01:06:24;;;;;;;15.38;10.95;;;;;;;-0.16;67.26;101087.34;686204;28;1245;-80
2021/12/23 01:06:45;;;;;;;16.53;11.50;;;;;;;-0.15;67.50;101085.63;688055;28;1223;-80
2021/12/23 01:07:05;;;;;;;15.75;11.18;;;;;;;-0.14;67.30;101073.72;685055;28;1465;-80
2021/12/23 01:07:26;;;;;;;14.75;11.10;;;;;;;-0.14;67.59;101082.28;688644;28;1175;-80
2021/12/23 01:07:48;;;;;;;14.23;10.90;;;;;;;-0.15;67.39;101072.81;690559;28;799;-80
2021/12/23 01:08:09;;;;;;;14.20;10.70;;;;;;;-0.13;67.34;101073.84;685075;28;1290;-81
2021/12/23 01:08:29;;;;;;;14.27;10.40;;;;;;;-0.15;67.27;101075.38;682525;28;1302;-81
2021/12/23 01:08:50;;;;;;;13.75;10.05;;;;;;;-0.12;67.33;101074.72;680171;29;886;-81
2021/12/23 01:09:10;;;;;;;15.43;11.18;;;;;;;-0.12;67.17;101075.63;679349;29;1215;-80
2021/12/23 01:09:31;;;;;;;15.90;11.40;;;;;;;-0.13;66.95;101065.25;686214;28;1272;-80
2021/12/23 01:09:52;;;;;;;16.43;11.77;;;;;;;-0.13;66.92;101073.84;685822;28;1801;-81
2021/12/23 01:10:15;;;;;;;15.25;10.90;;;;;;;-0.10;67.09;101076.63;687812;28;1320;-81
2021/12/23 01:10:36;;;;;;;14.68;10.48;;;;;;;-0.03;67.50;101091.72;685075;28;1064;-80
2021/12/23 01:10:59;;;;;;;14.95;11.02;;;;;;;-0.11;67.34;101072.28;685359;28;906;-81
2021/12/23 01:11:19;;;;;;;15.65;11.32;;;;;;;-0.13;67.33;101071.28;685188;28;1959;-81
2021/12/23 01:11:41;;;;;;;15.77;11.20;;;;;;;-0.08;67.24;101080.22;687864;28;1137;-81
2021/12/23 01:12:02;;;;;;;14.45;10.35;;;;;;;-0.07;67.23;101086.25;685057;28;2180;-81
2021/12/23 01:12:28;;;;;;;15.40;10.70;;;;;;;-0.11;67.01;101067.16;682866;28;1436;-81
2021/12/23 01:12:55;;;;;;;16.70;11.48;;;;;;;-0.13;67.20;101071.28;684836;28;981;-81
2021/12/23 01:13:18;;;;;;;17.75;11.90;;;;;;;-0.11;67.11;101066.25;684983;28;1108;-80
2021/12/23 01:13:46;;;;;;;17.15;11.38;;;;;;;-0.07;67.06;101070.84;682226;29;1915;-80
2021/12/23 01:14:51;;;;;;;18.98;11.85;;;;;;;-0.09;67.02;101047.63;685115;28;1104;-81
2021/12/23 01:15:39;;;;;;;17.52;11.88;;;;;;;-0.07;66.93;101043.50;687913;28;1086;-80
2021/12/23 01:16:03;;;;;;;15.98;11.43;;;;;;;-0.02;67.17;101047.31;687141;28;1481;-81
2021/12/23 01:16:36;;;;;;;16.65;11.40;;;;;;;-0.03;67.15;101034.38;686104;28;1057;-81
2021/12/23 01:17:55;;;;;;;18.90;11.70;;;;;;;-0.00;67.15;101038.84;687579;28;1293;-80
2021/12/23 01:18:20;;;;;;;14.93;10.40;;;;;;;0.04;67.41;101046.88;683813;28;1049;-81
2021/12/23 01:18:44;;;;;;;16.35;10.60;;;;;;;-0.05;67.21;101028.22;679981;29;1925;-80
2021/12/23 01:19:11;;;;;;;19.27;11.07;;;;;;;-0.04;67.45;101028.34;681422;28;1099;-80
2021/12/23 01:19:38;;;;;;;17.13;11.77;;;;;;;-0.02;67.13;101031.00;685856;28;1236;-80
2021/12/23 01:20:30;;;;;;;16.08;12.10;;;;;;;0.04;67.07;101028.03;685110;28;1127;-80
2021/12/23 01:20:52;;;;;;;16.83;12.15;;;;;;;-0.00;67.08;101020.88;690384;28;1499;-80
2021/12/23 01:21:16;;;;;;;17.05;12.18;;;;;;;-0.03;67.24;101014.75;688652;28;1097;-80
2021/12/23 01:21:37;;;;;;;16.55;11.82;;;;;;;-0.03;67.17;101019.88;690554;28;1190;-80
2021/12/23 01:21:57;;;;;;;16.02;12.00;;;;;;;-0.01;67.20;101017.44;688006;28;791;-80
2021/12/23 01:22:19;;;;;;;16.55;11.90;;;;;;;0.01;67.26;101023.56;687816;28;1089;-80
2021/12/23 01:22:39;;;;;;;16.00;11.35;;;;;;;-0.07;67.20;101010.16;687226;28;1259;-80
2021/12/23 01:23:01;;;;;;;15.90;11.20;;;;;;;-0.04;67.52;101018.09;685136;28;1130;-80
2021/12/23 01:23:24;;;;;;;15.76;11.78;;;;;;;-0.05;67.13;101016.31;685946;28;902;-80
2021/12/23 01:23:52;;;;;;;14.90;11.82;;;;;;;-0.07;67.14;101017.84;685209;28;1852;-80
2021/12/23 01:24:13;;;;;;;13.90;11.13;;;;;;;-0.04;67.45;101019.75;682503;28;1060;-80
2021/12/23 01:24:34;;;;;;;14.80;10.98;;;;;;;-0.00;67.17;101028.56;682516;28;1107;-80
2021/12/23 01:24:54;;;;;;;14.23;10.70;;;;;;;-0.03;67.16;101019.88;685394;28;772;-80
2021/12/23 01:25:15;;;;;;;14.02;10.80;;;;;;;0.05;67.50;101038.41;686776;28;1136;-80
2021/12/23 01:25:39;;;;;;;14.02;11.00;;;;;;;-0.07;67.30;101012.72;687140;28;1131;-80
2021/12/23 01:25:59;;;;;;;14.85;10.93;;;;;;;-0.08;67.28;101010.06;686570;28;1214;-80
2021/12/23 01:26:22;;;;;;;16.90;10.97;;;;;;;-0.07;67.36;101009.28;680086;29;1117;-80
2021/12/23 01:26:43;;;;;;;16.10;10.65;;;;;;;-0.04;67.70;101023.22;682622;29;1245;-80
2021/12/23 01:27:04;;;;;;;15.57;10.60;;;;;;;-0.02;67.45;101020.75;685087;28;1253;-80
2021/12/23 01:27:24;;;;;;;13.55;10.07;;;;;;;-0.07;67.43;101006.72;686392;28;1233;-81
2021/12/23 01:27:45;;;;;;;15.80;10.73;;;;;;;-0.05;67.56;101010.28;688364;28;864;-80
2021/12/23 01:28:07;;;;;;;15.40;10.87;;;;;;;-0.03;67.50;101016.41;685188;28;1097;-80
2021/12/23 01:28:27;;;;;;;16.90;10.93;;;;;;;-0.03;67.39;101014.75;686921;28;1294;-80
2021/12/23 01:28:58;;;;;;;15.60;10.88;;;;;;;-0.07;67.53;101012.72;689847;28;1594;-80
2021/12/23 01:29:18;;;;;;;16.38;11.20;;;;;;;-0.05;67.49;101015.41;688131;28;1082;-80
2021/12/23 01:29:39;;;;;;;15.10;11.17;;;;;;;-0.07;67.27;101016.97;690392;28;1065;-80
2021/12/23 01:30:02;;;;;;;14.25;10.38;;;;;;;-0.04;67.54;101023.22;687856;28;1200;-81
2021/12/23 01:30:23;;;;;;;15.23;10.82;;;;;;;-0.12;67.70;101014.06;683029;28;1029;-80
2021/12/23 01:30:44;;;;;;;15.70;11.20;;;;;;;-0.05;67.64;101031.72;687699;28;791;-80
2021/12/23 01:31:05;;;;;;;16.13;11.60;;;;;;;-0.04;67.50;101027.44;681599;28;1199;-80
2021/12/23 01:31:28;;;;;;;16.13;11.10;;;;;;;-0.07;67.58;101030.69;685659;28;1972;-80
2021/12/23 01:31:49;;;;;;;15.00;10.18;;;;;;;-0.02;67.64;101042.19;687926;28;833;-80
2021/12/23 01:32:09;;;;;;;13.50;9.53;;;;;;;-0.03;67.52;101035.28;687892;28;1612;-80
2021/12/23 01:32:30;;;;;;;12.85;9.80;;;;;;;-0.06;67.60;101035.03;687759;28;1500;-80
2021/12/23 01:32:56;;;;;;;13.80;10.30;;;;;;;0.01;67.61;101038.06;687845;28;1196;-80
2021/12/23 01:33:16;;;;;;;15.63;10.35;;;;;;;-0.00;67.49;101033.72;687226;28;2034;-80
2021/12/23 01:33:37;;;;;;;16.63;10.67;;;;;;;-0.03;67.31;101035.28;684845;28;1201;-81
2021/12/23 01:33:58;;;;;;;16.20;11.30;;;;;;;0.02;67.80;101034.72;690665;28;870;-80
2021/12/23 01:34:19;;;;;;;15.18;10.77;;;;;;;0.03;67.41;101034.84;687769;28;1705;-80
2021/12/23 01:34:40;;;;;;;14.87;10.67;;;;;;;-0.02;67.57;101021.66;687818;28;1145;-80
2021/12/23 01:35:00;;;;;;;16.07;10.50;;;;;;;-0.00;67.48;101031.13;685300;28;1042;-81
2021/12/23 01:35:24;;;;;;;17.27;10.57;;;;;;;-0.02;67.52;101021.66;682468;28;1620;-80
2021/12/23 01:35:45;;;;;;;17.00;10.45;;;;;;;0.03;67.20;101024.56;685214;28;906;-80
2021/12/23 01:36:06;;;;;;;14.10;10.13;;;;;;;0.03;67.34;101023.69;682524;29;1062;-80
2021/12/23 01:36:27;;;;;;;14.47;10.63;;;;;;;0.06;67.36;101031.59;685858;28;1157;-80
2021/12/23 01:36:47;;;;;;;14.90;10.75;;;;;;;0.03;67.40;101029.69;687961;28;1030;-80
2021/12/23 01:37:08;;;;;;;14.67;10.43;;;;;;;0.03;67.25;101026.25;685331;28;1096;-80
2021/12/23 01:37:28;;;;;;;13.65;10.30;;;;;;;0.02;67.19;101027.91;683992;28;1239;-80
2021/12/23 01:37:49;;;;;;;14.15;10.10;;;;;;;0.01;67.25;101022.66;683542;28;1347;-80
2021/12/23 01:38:10;;;;;;;14.80;10.40;;;;;;;0.05;67.35;101033.25;685399;28;1310;-80
2021/12/23 01:38:31;;;;;;;14.40;10.50;;;;;;;0.07;67.27;101030.81;685494;28;1270;-80
2021/12/23 01:38:52;;;;;;;13.87;10.80;;;;;;;0.09;67.22;101031.81;687974;28;845;-80
2021/12/23 01:39:14;;;;;;;15.85;10.90;;;;;;;0.10;67.13;101036.19;684798;28;1317;-80
2021/12/23 01:39:34;;;;;;;15.27;10.80;;;;;;;0.05;67.14;101029.81;686709;28;1215;-80
2021/12/23 01:39:55;;;;;;;15.05;10.65;;;;;;;0.06;67.16;101027.34;690686;28;760;-80
2021/12/23 01:40:18;;;;;;;13.07;10.32;;;;;;;0.12;66.92;101034.63;693208;28;1134;-80
2021/12/23 01:40:39;;;;;;;13.50;10.20;;;;;;;0.10;67.41;101025.91;687747;28;1138;-80
2021/12/23 01:41:00;;;;;;;14.75;10.48;;;;;;;0.12;66.97;101030.38;685217;28;1072;-80
2021/12/23 01:41:23;;;;;;;15.55;10.70;;;;;;;0.14;67.02;101033.06;685266;28;1088;-80
2021/12/23 01:41:44;;;;;;;15.27;10.50;;;;;;;0.11;67.02;101022.59;685352;28;990;-81
2021/12/23 01:42:05;;;;;;;14.30;10.30;;;;;;;0.14;66.88;101033.06;682459;28;1218;-80
2021/12/23 01:42:26;;;;;;;14.05;10.40;;;;;;;0.16;67.10;101035.75;682563;29;990;-81
2021/12/23 01:42:47;;;;;;;15.20;11.10;;;;;;;0.10;66.92;101013.97;684939;28;1190;-80
2021/12/23 01:43:07;;;;;;;15.40;11.02;;;;;;;0.09;66.98;101019.91;685140;28;1013;-81
2021/12/23 01:43:28;;;;;;;15.57;10.70;;;;;;;0.09;67.14;101019.91;687829;28;1232;-80
2021/12/23 01:43:50;;;;;;;14.65;10.30;;;;;;;0.14;67.03;101027.03;687876;28;827;-80
2021/12/23 01:44:11;;;;;;;14.02;10.40;;;;;;;0.10;67.17;101026.81;687940;28;1089;-80
2021/12/23 01:44:32;;;;;;;13.35;10.27;;;;;;;0.09;66.91;101025.03;690689;28;1048;-80
2021/12/23 01:44:52;;;;;;;14.80;10.30;;;;;;;0.15;66.92;101041.69;696157;28;845;-80
2021/12/23 01:45:16;;;;;;;15.93;10.50;;;;;;;0.14;67.00;101038.22;696039;28;932;-80
2021/12/23 01:45:44;;;;;;;16.88;10.75;;;;;;;0.14;66.94;101038.22;691192;28;1134;-80
2021/12/23 01:46:05;;;;;;;15.48;10.95;;;;;;;0.11;67.10;101035.44;687798;28;1150;-80
2021/12/23 01:46:26;;;;;;;13.45;10.32;;;;;;;0.17;66.98;101043.56;685808;28;1226;-80
2021/12/23 01:46:46;;;;;;;13.63;10.53;;;;;;;0.16;66.96;101041.78;686885;28;1258;-80
2021/12/23 01:47:07;;;;;;;13.77;10.45;;;;;;;0.16;66.97;101036.63;685042;28;1152;-80
2021/12/23 01:47:29;;;;;;;15.07;11.02;;;;;;;0.14;67.03;101038.22;683814;28;1135;-80
2021/12/23 01:47:50;;;;;;;14.35;10.30;;;;;;;0.16;67.21;101034.06;684838;28;1857;-80
2021/12/23 01:48:11;;;;;;;13.65;9.85;;;;;;;0.23;67.05;101046.59;688137;28;1729;-81
2021/12/23 01:48:32;;;;;;;13.80;9.60;;;;;;;0.18;67.34;101032.50;687867;28;1052;-80
2021/12/23 01:48:53;;;;;;;13.40;9.70;;;;;;;0.17;67.07;101028.16;685152;28;1126;-80
2021/12/23 01:49:13;;;;;;;13.10;9.70;;;;;;;0.14;67.09;101020.25;682082;29;1145;-80
2021/12/23 01:49:34;;;;;;;13.55;9.60;;;;;;;0.17;67.06;101017.88;684760;28;1198;-80
2021/12/23 01:49:55;;;;;;;14.97;9.70;;;;;;;0.12;67.09;101007.28;682123;29;1141;-81
2021/12/23 01:50:18;;;;;;;15.10;9.90;;;;;;;0.12;67.12;101003.84;685336;28;1054;-81
2021/12/23 01:50:39;;;;;;;13.63;10.25;;;;;;;0.12;67.20;101007.28;685129;28;1694;-80
2021/12/23 01:51:01;;;;;;;13.27;10.20;;;;;;;0.10;67.17;101000.25;687780;28;938;-80
2021/12/23 01:51:21;;;;;;;14.55;10.18;;;;;;;0.11;67.31;100996.94;688607;28;1919;-80
2021/12/23 01:51:42;;;;;;;14.43;9.97;;;;;;;0.12;67.13;100994.44;685186;28;1169;-80
2021/12/23 01:52:03;;;;;;;14.32;9.80;;;;;;;0.09;67.18;100989.09;684634;28;1308;-80
2021/12/23 01:52:25;;;;;;;13.07;9.60;;;;;;;0.09;67.46;100989.09;688288;28;1044;-80